Blue Horizon — WCX5096 — position and weather

sailwx.info

Track history (hours):
 
Tides and Currents Weather Stations Pressure Air Temp Water Temp Dewpoint Dewpoint Depression Visibility Wind Speed Wind Dir Waves Ship Positions

Blue Horizon

Owner: STRUNK, DANIEL R, REDONDO BEACH, CA. More information available from US FCC via Universal Licensing System and Coast Guard Vessel Documentation Center.

Last reported at 2017-Sep-25 19:00 UTC. Time now 2017-Sep-25 19:12 UTC.
Position N 33°46' W 118°12'.

Type: Passenger vessel. MMSI: 367422040.

Date/timePositionNaut miles runAvg speedWind from/ knotsBaromVisibWave heightAir tempDewpointWater temp
2017-Sep-25 19:00N 33°46' W 118°12'0 0.0
2017-Sep-25 18:30N 33°46' W 118°12'0 0.0
2017-Sep-25 18:00N 33°46' W 118°12'0 0.0
2017-Sep-25 17:30N 33°46' W 118°12'0 0.0
2017-Sep-25 17:00N 33°46' W 118°12'0 0.0
2017-Sep-25 16:30N 33°46' W 118°12'0 0.0
2017-Sep-25 16:00N 33°46' W 118°12'0 0.0
2017-Sep-25 15:30N 33°46' W 118°12'0 0.0
2017-Sep-25 15:00N 33°46' W 118°12'0 0.0
2017-Sep-25 14:30N 33°46' W 118°12'0 0.0
2017-Sep-25 14:00N 33°46' W 118°12'0 0.0
2017-Sep-25 13:30N 33°46' W 118°12'0 0.0
2017-Sep-25 13:00N 33°46' W 118°12'0 0.0
2017-Sep-25 12:30N 33°46' W 118°12'0 0.0
2017-Sep-25 12:00N 33°46' W 118°12'0 0.0
2017-Sep-25 11:30N 33°46' W 118°12'0 0.0
2017-Sep-25 11:00N 33°46' W 118°12'2 4.3
2017-Sep-25 10:30N 33°44' W 118°11'5 9.1
2017-Sep-25 10:00N 33°39' W 118°10'4 7.5
2017-Sep-25 09:30N 33°36' W 118°12'4 8.1
2017-Sep-25 09:00N 33°32' W 118°14'5 8.0
2017-Sep-25 08:26N 33°27' W 118°15'3 7.8
2017-Sep-25 08:00N 33°24' W 118°16'4 7.7
2017-Sep-25 07:30N 33°20' W 118°17'4 7.9
2017-Sep-25 07:00N 33°16' W 118°17'5 7.8
2017-Sep-25 06:24N 33°12' W 118°17'8 7.5
2017-Sep-25 05:20N 33°04' W 118°17'3 7.5
2017-Sep-25 05:00N 33°01' W 118°17'4 7.8
2017-Sep-25 04:30N 32°57' W 118°18'4 7.8
2017-Sep-25 04:00N 32°53' W 118°19'4 7.3
2017-Sep-25 03:29N 32°50' W 118°20'3 5.3
2017-Sep-25 03:00N 32°49' W 118°23'0 0.0
2017-Sep-25 02:30N 32°49' W 118°23'0 0.0
2017-Sep-25 01:59N 32°49' W 118°23'1 1.5
2017-Sep-25 01:26N 32°49' W 118°22'2 4.0
2017-Sep-25 01:00N 32°50' W 118°22'2 4.5
2017-Sep-25 00:30N 32°52' W 118°24'1 2.0
2017-Sep-24 23:59N 32°53' W 118°25'2 3.9
2017-Sep-24 23:30N 32°54' W 118°27'1 2.9
2017-Sep-24 23:00N 32°55' W 118°28'3 7.1
2017-Sep-24 22:31N 32°58' W 118°30'4 9.0
2017-Sep-24 22:01N 33°02' W 118°33'3 6.8
2017-Sep-24 21:30N 33°02' W 118°37'0 0.1
2017-Sep-24 21:00N 33°02' W 118°37'0 0.1
2017-Sep-24 20:29N 33°02' W 118°37'1 2.2
2017-Sep-24 20:00N 33°04' W 118°37'0 0.6
2017-Sep-24 19:29N 33°04' W 118°37'1 0.1
2017-Sep-24 13:43N 33°03' W 118°38'1 5.7
2017-Sep-24 13:30N 33°03' W 118°36'3 5.9
2017-Sep-24 13:00N 33°05' W 118°34'2 3.6
2017-Sep-24 12:29N 33°05' W 118°36'1 2.6
2017-Sep-24 12:00N 33°06' W 118°37'0 0.5
2017-Sep-24 11:30N 33°06' W 118°37'2 3.2
2017-Sep-24 10:49N 33°05' W 118°35'2 7.3
2017-Sep-24 10:30N 33°05' W 118°32'9 8.1
2017-Sep-24 09:25N 33°07' W 118°22'4 8.8
2017-Sep-24 09:00N 33°09' W 118°19'5 8.6
2017-Sep-24 08:22N 33°14' W 118°16'3 8.6
2017-Sep-24 08:00N 33°17' W 118°15'4 8.6
2017-Sep-24 07:30N 33°22' W 118°15'4 8.8
2017-Sep-24 07:00N 33°26' W 118°14'5 8.9
2017-Sep-24 06:30N 33°30' W 118°13'5 9.2
2017-Sep-24 05:59N 33°35' W 118°11'4 9.1
2017-Sep-24 05:30N 33°39' W 118°10'5 9.2
2017-Sep-24 05:00N 33°43' W 118°08'1 2.2
2017-Sep-24 04:30N 33°44' W 118°09'3 5.4
2017-Sep-24 04:00N 33°46' W 118°12'0 0.0
2017-Sep-24 03:30N 33°46' W 118°12'0 0.0
2017-Sep-24 03:00N 33°46' W 118°12'0 0.0
2017-Sep-24 02:30N 33°46' W 118°12'0 0.0
2017-Sep-24 02:00N 33°46' W 118°12'4 7.0
2017-Sep-24 01:30N 33°42' W 118°11'5 9.3
2017-Sep-24 01:00N 33°39' W 118°15'6 9.8
2017-Sep-24 00:23N 33°36' W 118°21'510.2
2017-Sep-23 23:55N 33°32' W 118°26'4 9.8
2017-Sep-23 23:30N 33°30' W 118°29'22 0.5
2017-Sep-22 02:00N 33°46' W 118°12'0 0.0
2017-Sep-22 01:30N 33°46' W 118°12'0 0.0
2017-Sep-22 01:00N 33°46' W 118°12'0 0.0
2017-Sep-22 00:30N 33°46' W 118°12'0 0.0
2017-Sep-21 23:04N 33°46' W 118°12'0 0.0
2017-Sep-21 23:00N 33°46' W 118°12'0 0.0
2017-Sep-21 22:29N 33°46' W 118°12'0 0.0
2017-Sep-21 21:48N 33°46' W 118°12'0 0.0
2017-Sep-21 21:27N 33°46' W 118°12'0 0.0
2017-Sep-21 21:00N 33°46' W 118°12'0 0.0
2017-Sep-21 20:30N 33°46' W 118°12'0 0.0
2017-Sep-21 20:00N 33°46' W 118°12'0 0.0
2017-Sep-21 19:30N 33°46' W 118°12'0 0.0
2017-Sep-21 19:00N 33°46' W 118°12'0 0.0
2017-Sep-21 18:30N 33°46' W 118°12'0 0.0
2017-Sep-21 17:59N 33°46' W 118°12'0 0.0
2017-Sep-21 17:30N 33°46' W 118°12'0 0.0
2017-Sep-21 17:00N 33°46' W 118°12'0 0.0
2017-Sep-21 16:29N 33°46' W 118°12'0 0.0
2017-Sep-21 15:59N 33°46' W 118°12'0 0.0
2017-Sep-21 15:30N 33°46' W 118°12'0 0.0
2017-Sep-21 15:00N 33°46' W 118°12'0 0.0
2017-Sep-21 14:30N 33°46' W 118°12'0 0.0
2017-Sep-21 14:00N 33°46' W 118°12'0 0.0
2017-Sep-21 13:30N 33°46' W 118°12'0 0.0
2017-Sep-21 13:00N 33°46' W 118°12'0 0.0
2017-Sep-21 12:30N 33°46' W 118°12'0 0.0
2017-Sep-21 12:00N 33°46' W 118°12'0 0.0
2017-Sep-21 11:30N 33°46' W 118°12'0 0.0
2017-Sep-21 11:00N 33°46' W 118°12'0 0.0
2017-Sep-21 10:30N 33°46' W 118°12'0 0.0
2017-Sep-21 10:00N 33°46' W 118°12'0 0.0
2017-Sep-21 09:29N 33°46' W 118°12'0 0.0
2017-Sep-21 04:34N 33°46' W 118°12'0 0.0
2017-Sep-21 04:31N 33°46' W 118°12'0 0.0
2017-Sep-21 04:01N 33°46' W 118°12'0 0.0
2017-Sep-21 03:30N 33°46' W 118°12'0 0.0
2017-Sep-21 03:01N 33°46' W 118°12'0 0.0
2017-Sep-21 02:30N 33°46' W 118°12'0 0.0
2017-Sep-21 02:00N 33°46' W 118°12'0 0.0
2017-Sep-21 01:31N 33°46' W 118°12'0 0.0
2017-Sep-21 01:01N 33°46' W 118°12'0 0.0
2017-Sep-21 00:30N 33°46' W 118°12'0 0.0
2017-Sep-21 00:01N 33°46' W 118°12'0 0.0
2017-Sep-20 23:30N 33°46' W 118°12'0 0.0
2017-Sep-20 23:00N 33°46' W 118°12'0 0.0
2017-Sep-20 22:29N 33°46' W 118°12'0 0.0
2017-Sep-20 22:00N 33°46' W 118°12'0 0.0
2017-Sep-20 21:30N 33°46' W 118°12'0 0.0
2017-Sep-20 21:00N 33°46' W 118°12'0 0.0
2017-Sep-20 20:31N 33°46' W 118°12'0 0.0
2017-Sep-20 20:01N 33°46' W 118°12'0 0.0
2017-Sep-20 19:31N 33°46' W 118°12'0 0.0
2017-Sep-20 19:00N 33°46' W 118°12'0 0.0
2017-Sep-20 18:30N 33°46' W 118°12'0 0.0
2017-Sep-20 18:00N 33°46' W 118°12'0 0.0
2017-Sep-20 16:58N 33°46' W 118°12'0 0.0
2017-Sep-20 16:30N 33°46' W 118°12'0 0.0
2017-Sep-20 15:54N 33°46' W 118°12'0 0.0
2017-Sep-20 15:29N 33°46' W 118°12'0 0.0
2017-Sep-20 14:55N 33°46' W 118°12'0 0.0
2017-Sep-20 13:59N 33°46' W 118°12'0 0.0
2017-Sep-20 13:30N 33°46' W 118°12'0 0.0
2017-Sep-20 13:00N 33°46' W 118°12'0 0.0
2017-Sep-20 12:31N 33°46' W 118°12'0 0.0
2017-Sep-20 12:00N 33°46' W 118°12'0 0.0
2017-Sep-20 11:30N 33°46' W 118°12'0 0.0
2017-Sep-20 11:00N 33°46' W 118°12'0 0.0
2017-Sep-20 10:30N 33°46' W 118°12'0 0.0
2017-Sep-20 10:00N 33°46' W 118°12'0 0.0
2017-Sep-20 09:30N 33°46' W 118°12'0 0.0
2017-Sep-20 09:01N 33°46' W 118°12'0 0.0
2017-Sep-20 08:30N 33°46' W 118°12'0 0.0
2017-Sep-20 07:59N 33°46' W 118°12'0 0.0
2017-Sep-20 02:27N 33°46' W 118°12'0 0.0
2017-Sep-20 00:44N 33°46' W 118°12'0 0.0
2017-Sep-20 00:30N 33°46' W 118°12'0 0.0
2017-Sep-20 00:00N 33°46' W 118°12'0 0.0
2017-Sep-19 23:26N 33°46' W 118°12'0 0.0
2017-Sep-19 23:00N 33°46' W 118°12'0 0.0
2017-Sep-19 22:30N 33°46' W 118°12'0 0.0
2017-Sep-19 22:00N 33°46' W 118°12'0 0.0
2017-Sep-19 21:30N 33°46' W 118°12'0 0.0
2017-Sep-19 21:00N 33°46' W 118°12'0 0.0
2017-Sep-19 20:30N 33°46' W 118°12'0 0.0
2017-Sep-19 19:59N 33°46' W 118°12'0 0.0
2017-Sep-19 19:30N 33°46' W 118°12'0 0.0
2017-Sep-19 19:00N 33°46' W 118°12'0 0.0
2017-Sep-19 18:26N 33°46' W 118°12'0 0.0
2017-Sep-19 18:00N 33°46' W 118°12'0 0.0
2017-Sep-19 17:29N 33°46' W 118°12'0 0.0
2017-Sep-19 17:00N 33°46' W 118°12'0 0.0
2017-Sep-19 16:30N 33°46' W 118°12'0 0.0
2017-Sep-19 16:00N 33°46' W 118°12'0 0.0
2017-Sep-19 15:30N 33°46' W 118°12'0 0.0
2017-Sep-19 15:00N 33°46' W 118°12'0 0.0
2017-Sep-19 14:04N 33°46' W 118°12'0 0.0
2017-Sep-19 13:59N 33°46' W 118°12'0 0.0
2017-Sep-19 13:30N 33°46' W 118°12'0 0.0
2017-Sep-19 02:30N 33°46' W 118°12'2 3.3
2017-Sep-19 02:00N 33°44' W 118°11'5 9.1
2017-Sep-19 01:30N 33°40' W 118°14'17 4.5
2017-Sep-18 21:42N 33°25' W 118°24'3 8.6
2017-Sep-18 21:22N 33°23' W 118°21'4 8.8
2017-Sep-18 20:57N 33°21' W 118°19'1 0.9
2017-Sep-18 20:18N 33°20' W 118°18'4 3.4
2017-Sep-18 19:05N 33°23' W 118°22'0 0.6
2017-Sep-18 19:00N 33°23' W 118°22'5 3.5
2017-Sep-18 17:27N 33°28' W 118°18'4 8.9
2017-Sep-18 16:58N 33°31' W 118°15'6 9.0
2017-Sep-18 16:17N 33°36' W 118°11'2 9.0
2017-Sep-18 16:01N 33°39' W 118°10'5 9.2
2017-Sep-18 15:30N 33°43' W 118°08'0 0.9
2017-Sep-18 15:00N 33°44' W 118°08'3 7.2
2017-Sep-18 14:31N 33°46' W 118°12'0 0.0
2017-Sep-18 14:01N 33°46' W 118°12'0 0.0
2017-Sep-18 13:31N 33°46' W 118°12'0 0.0
2017-Sep-18 13:00N 33°46' W 118°12'0 0.0
2017-Sep-18 12:30N 33°46' W 118°12'0 0.0
2017-Sep-18 12:00N 33°46' W 118°12'0 0.0
2017-Sep-18 11:30N 33°46' W 118°12'0 0.0
2017-Sep-18 11:00N 33°46' W 118°12'0 0.0
2017-Sep-18 10:30N 33°46' W 118°12'0 0.0
2017-Sep-18 10:00N 33°46' W 118°12'0 0.0
2017-Sep-18 08:25N 33°46' W 118°12'0 0.0
2017-Sep-18 07:59N 33°46' W 118°12'0 0.0
2017-Sep-18 07:30N 33°46' W 118°12'0 0.0
2017-Sep-18 06:59N 33°46' W 118°12'0 0.0
2017-Sep-18 06:21N 33°46' W 118°12'0 0.0
2017-Sep-18 05:53N 33°46' W 118°12'0 0.0
2017-Sep-18 04:58N 33°46' W 118°12'0 0.0
2017-Sep-18 04:28N 33°46' W 118°12'0 0.0
2017-Sep-18 04:00N 33°46' W 118°12'0 0.0
2017-Sep-18 03:30N 33°46' W 118°12'0 0.0
2017-Sep-18 03:00N 33°46' W 118°12'0 0.0
2017-Sep-18 02:30N 33°46' W 118°12'0 0.0
2017-Sep-18 02:00N 33°46' W 118°12'0 0.0
2017-Sep-18 01:30N 33°46' W 118°12'0 0.0
2017-Sep-18 01:00N 33°46' W 118°12'0 0.0
2017-Sep-18 00:30N 33°46' W 118°12'0 0.0
2017-Sep-18 00:00N 33°46' W 118°12'0 0.0
2017-Sep-17 23:30N 33°46' W 118°12'0 0.0
2017-Sep-17 23:00N 33°46' W 118°12'0 0.0
2017-Sep-17 22:30N 33°46' W 118°12'0 0.0
2017-Sep-17 22:00N 33°46' W 118°12'0 0.0
2017-Sep-17 21:30N 33°46' W 118°12'0 0.0
2017-Sep-17 21:00N 33°46' W 118°12'0 0.0
2017-Sep-17 20:30N 33°46' W 118°12'0 0.0
2017-Sep-17 20:00N 33°46' W 118°12'0 0.0
2017-Sep-17 19:30N 33°46' W 118°12'0 0.0
2017-Sep-17 19:00N 33°46' W 118°12'0 0.0
2017-Sep-17 18:29N 33°46' W 118°12'0 0.0
2017-Sep-17 18:00N 33°46' W 118°12'0 0.0
2017-Sep-17 17:30N 33°46' W 118°12'0 0.0
2017-Sep-17 16:59N 33°46' W 118°12'0 0.0
2017-Sep-17 16:30N 33°46' W 118°12'0 0.0
2017-Sep-17 16:00N 33°46' W 118°12'0 0.0
2017-Sep-17 15:30N 33°46' W 118°12'0 0.0
2017-Sep-17 15:00N 33°46' W 118°12'0 0.0
2017-Sep-17 14:30N 33°46' W 118°12'0 0.0
2017-Sep-17 14:00N 33°46' W 118°12'0 0.0
2017-Sep-17 13:30N 33°46' W 118°12'0 0.0
2017-Sep-17 13:00N 33°46' W 118°12'0 0.0
2017-Sep-17 12:30N 33°46' W 118°12'0 0.0
2017-Sep-17 12:00N 33°46' W 118°12'0 0.0
2017-Sep-17 11:30N 33°46' W 118°12'0 0.0
2017-Sep-17 11:00N 33°46' W 118°12'0 0.0
2017-Sep-17 10:30N 33°46' W 118°12'0 0.0
2017-Sep-17 10:00N 33°46' W 118°12'0 0.0
2017-Sep-17 09:30N 33°46' W 118°12'0 0.0
2017-Sep-17 09:00N 33°46' W 118°12'0 0.0
2017-Sep-17 08:30N 33°46' W 118°12'0 0.0
2017-Sep-17 08:00N 33°46' W 118°12'0 0.0
2017-Sep-17 07:30N 33°46' W 118°12'0 0.0
2017-Sep-17 07:00N 33°46' W 118°12'0 0.0
2017-Sep-17 06:30N 33°46' W 118°12'0 0.0
2017-Sep-17 06:00N 33°46' W 118°12'0 0.0
2017-Sep-17 05:30N 33°46' W 118°12'0 0.0
2017-Sep-17 05:00N 33°46' W 118°12'0 0.0
2017-Sep-17 04:30N 33°46' W 118°12'0 0.0
2017-Sep-17 04:00N 33°46' W 118°12'0 0.0
2017-Sep-17 03:30N 33°46' W 118°12'0 0.0
2017-Sep-17 03:00N 33°46' W 118°12'0 0.0
2017-Sep-17 02:30N 33°46' W 118°12'0 0.0
2017-Sep-17 02:00N 33°46' W 118°12'0 0.0
2017-Sep-17 01:30N 33°46' W 118°12'0 0.0
2017-Sep-17 01:00N 33°46' W 118°12'0 0.0
2017-Sep-17 00:30N 33°46' W 118°12'0 0.0
2017-Sep-17 00:00N 33°46' W 118°12'0 0.0
2017-Sep-16 23:30N 33°46' W 118°12'0 0.0
2017-Sep-16 23:00N 33°46' W 118°12'0 0.0
2017-Sep-16 22:30N 33°46' W 118°12'0 0.0
2017-Sep-16 22:00N 33°46' W 118°12'0 0.0
2017-Sep-16 21:30N 33°46' W 118°12'0 0.0
2017-Sep-16 21:00N 33°46' W 118°12'0 0.0
2017-Sep-16 20:30N 33°46' W 118°12'0 0.0
2017-Sep-16 20:00N 33°46' W 118°12'0 0.0
2017-Sep-16 19:30N 33°46' W 118°12'0 0.0
2017-Sep-16 19:00N 33°46' W 118°12'0 0.0
2017-Sep-16 18:28N 33°46' W 118°12'0 0.0
2017-Sep-16 17:59N 33°46' W 118°12'0 0.0
2017-Sep-16 17:30N 33°46' W 118°12'0 0.0
2017-Sep-16 17:00N 33°46' W 118°12'0 0.0
2017-Sep-16 16:30N 33°46' W 118°12'0 0.0
2017-Sep-16 16:00N 33°46' W 118°12'0 0.0
2017-Sep-16 15:30N 33°46' W 118°12'0 0.0
2017-Sep-16 15:00N 33°46' W 118°12'0 0.0
2017-Sep-16 14:30N 33°46' W 118°12'0 0.0
2017-Sep-16 13:57N 33°46' W 118°12'0 0.0
2017-Sep-16 13:19N 33°46' W 118°12'0 0.0
2017-Sep-16 13:00N 33°46' W 118°12'0 0.0
2017-Sep-16 12:29N 33°46' W 118°12'0 0.0
2017-Sep-16 11:31N 33°46' W 118°12'0 0.0
2017-Sep-16 11:28N 33°46' W 118°12'0 0.0
2017-Sep-16 10:59N 33°46' W 118°12'0 0.0
2017-Sep-16 09:52N 33°46' W 118°12'0 0.0
2017-Sep-16 09:15N 33°46' W 118°12'0 0.0
2017-Sep-16 09:00N 33°46' W 118°12'0 0.0
2017-Sep-16 08:29N 33°46' W 118°12'0 0.0
2017-Sep-16 07:58N 33°46' W 118°12'0 0.0
2017-Sep-16 07:25N 33°46' W 118°12'0 0.0
2017-Sep-16 06:59N 33°46' W 118°12'0 0.0
2017-Sep-16 06:28N 33°46' W 118°12'0 0.0
2017-Sep-16 05:59N 33°46' W 118°12'0 0.0
2017-Sep-16 05:30N 33°46' W 118°12'0 0.0
2017-Sep-16 04:58N 33°46' W 118°12'0 0.0
2017-Sep-16 04:30N 33°46' W 118°12'0 0.0
2017-Sep-16 04:00N 33°46' W 118°12'0 0.0
2017-Sep-16 03:29N 33°46' W 118°12'0 0.0
2017-Sep-16 03:00N 33°46' W 118°12'0 0.0
2017-Sep-16 02:29N 33°46' W 118°12'0 0.0
2017-Sep-16 02:00N 33°46' W 118°12'0 0.0
2017-Sep-16 01:29N 33°46' W 118°12'0 0.0
2017-Sep-16 01:00N 33°46' W 118°12'0 0.0
2017-Sep-16 00:30N 33°46' W 118°12'0 0.0
2017-Sep-16 00:00N 33°46' W 118°12'0 0.0
2017-Sep-15 23:30N 33°46' W 118°12'0 0.0
2017-Sep-15 23:00N 33°46' W 118°12'0 0.0
2017-Sep-15 22:30N 33°46' W 118°12'0 0.0
2017-Sep-15 22:00N 33°46' W 118°12'0 0.0
2017-Sep-15 21:30N 33°46' W 118°12'0 0.0
2017-Sep-15 21:00N 33°46' W 118°12'0 0.0
2017-Sep-15 20:30N 33°46' W 118°12'0 0.0
2017-Sep-15 20:00N 33°46' W 118°12'0 0.0
2017-Sep-15 19:30N 33°46' W 118°12'  
Track history (hours):
 
Tides and Currents Weather Stations Pressure Air Temp Water Temp Dewpoint Dewpoint Depression Visibility Wind Speed Wind Dir Waves Ship Positions

Blue Horizon

Owner: STRUNK, DANIEL R, REDONDO BEACH, CA. More information available from US FCC via Universal Licensing System and Coast Guard Vessel Documentation Center.

Last reported at 2017-Sep-25 19:00 UTC. Time now 2017-Sep-25 19:12 UTC.
Position N 33°46' W 118°12'.

Type: Passenger vessel. MMSI: 367422040.

Date/timePositionNaut miles runAvg speedWind from/ knotsBaromVisibWave heightAir tempDewpointWater temp
2017-Sep-25 19:00N 33°46' W 118°12'0 0.0
2017-Sep-25 18:30N 33°46' W 118°12'0 0.0
2017-Sep-25 18:00N 33°46' W 118°12'0 0.0
2017-Sep-25 17:30N 33°46' W 118°12'0 0.0
2017-Sep-25 17:00N 33°46' W 118°12'0 0.0
2017-Sep-25 16:30N 33°46' W 118°12'0 0.0
2017-Sep-25 16:00N 33°46' W 118°12'0 0.0
2017-Sep-25 15:30N 33°46' W 118°12'0 0.0
2017-Sep-25 15:00N 33°46' W 118°12'0 0.0
2017-Sep-25 14:30N 33°46' W 118°12'0 0.0
2017-Sep-25 14:00N 33°46' W 118°12'0 0.0
2017-Sep-25 13:30N 33°46' W 118°12'0 0.0
2017-Sep-25 13:00N 33°46' W 118°12'0 0.0
2017-Sep-25 12:30N 33°46' W 118°12'0 0.0
2017-Sep-25 12:00N 33°46' W 118°12'0 0.0
2017-Sep-25 11:30N 33°46' W 118°12'0 0.0
2017-Sep-25 11:00N 33°46' W 118°12'2 4.3
2017-Sep-25 10:30N 33°44' W 118°11'5 9.1
2017-Sep-25 10:00N 33°39' W 118°10'4 7.5
2017-Sep-25 09:30N 33°36' W 118°12'4 8.1
2017-Sep-25 09:00N 33°32' W 118°14'5 8.0
2017-Sep-25 08:26N 33°27' W 118°15'3 7.8
2017-Sep-25 08:00N 33°24' W 118°16'4 7.7
2017-Sep-25 07:30N 33°20' W 118°17'4 7.9
2017-Sep-25 07:00N 33°16' W 118°17'5 7.8
2017-Sep-25 06:24N 33°12' W 118°17'8 7.5
2017-Sep-25 05:20N 33°04' W 118°17'3 7.5
2017-Sep-25 05:00N 33°01' W 118°17'4 7.8
2017-Sep-25 04:30N 32°57' W 118°18'4 7.8
2017-Sep-25 04:00N 32°53' W 118°19'4 7.3
2017-Sep-25 03:29N 32°50' W 118°20'3 5.3
2017-Sep-25 03:00N 32°49' W 118°23'0 0.0
2017-Sep-25 02:30N 32°49' W 118°23'0 0.0
2017-Sep-25 01:59N 32°49' W 118°23'1 1.5
2017-Sep-25 01:26N 32°49' W 118°22'2 4.0
2017-Sep-25 01:00N 32°50' W 118°22'2 4.5
2017-Sep-25 00:30N 32°52' W 118°24'1 2.0
2017-Sep-24 23:59N 32°53' W 118°25'2 3.9
2017-Sep-24 23:30N 32°54' W 118°27'1 2.9
2017-Sep-24 23:00N 32°55' W 118°28'3 7.1
2017-Sep-24 22:31N 32°58' W 118°30'4 9.0
2017-Sep-24 22:01N 33°02' W 118°33'3 6.8
2017-Sep-24 21:30N 33°02' W 118°37'0 0.1
2017-Sep-24 21:00N 33°02' W 118°37'0 0.1
2017-Sep-24 20:29N 33°02' W 118°37'1 2.2
2017-Sep-24 20:00N 33°04' W 118°37'0 0.6
2017-Sep-24 19:29N 33°04' W 118°37'1 0.1
2017-Sep-24 13:43N 33°03' W 118°38'1 5.7
2017-Sep-24 13:30N 33°03' W 118°36'3 5.9
2017-Sep-24 13:00N 33°05' W 118°34'2 3.6
2017-Sep-24 12:29N 33°05' W 118°36'1 2.6
2017-Sep-24 12:00N 33°06' W 118°37'0 0.5
2017-Sep-24 11:30N 33°06' W 118°37'2 3.2
2017-Sep-24 10:49N 33°05' W 118°35'2 7.3
2017-Sep-24 10:30N 33°05' W 118°32'9 8.1
2017-Sep-24 09:25N 33°07' W 118°22'4 8.8
2017-Sep-24 09:00N 33°09' W 118°19'5 8.6
2017-Sep-24 08:22N 33°14' W 118°16'3 8.6
2017-Sep-24 08:00N 33°17' W 118°15'4 8.6
2017-Sep-24 07:30N 33°22' W 118°15'4 8.8
2017-Sep-24 07:00N 33°26' W 118°14'5 8.9
2017-Sep-24 06:30N 33°30' W 118°13'5 9.2
2017-Sep-24 05:59N 33°35' W 118°11'4 9.1
2017-Sep-24 05:30N 33°39' W 118°10'5 9.2
2017-Sep-24 05:00N 33°43' W 118°08'1 2.2
2017-Sep-24 04:30N 33°44' W 118°09'3 5.4
2017-Sep-24 04:00N 33°46' W 118°12'0 0.0
2017-Sep-24 03:30N 33°46' W 118°12'0 0.0
2017-Sep-24 03:00N 33°46' W 118°12'0 0.0
2017-Sep-24 02:30N 33°46' W 118°12'0 0.0
2017-Sep-24 02:00N 33°46' W 118°12'4 7.0
2017-Sep-24 01:30N 33°42' W 118°11'5 9.3
2017-Sep-24 01:00N 33°39' W 118°15'6 9.8
2017-Sep-24 00:23N 33°36' W 118°21'510.2
2017-Sep-23 23:55N 33°32' W 118°26'4 9.8
2017-Sep-23 23:30N 33°30' W 118°29'22 0.5
2017-Sep-22 02:00N 33°46' W 118°12'0 0.0
2017-Sep-22 01:30N 33°46' W 118°12'0 0.0
2017-Sep-22 01:00N 33°46' W 118°12'0 0.0
2017-Sep-22 00:30N 33°46' W 118°12'0 0.0
2017-Sep-21 23:04N 33°46' W 118°12'0 0.0
2017-Sep-21 23:00N 33°46' W 118°12'0 0.0
2017-Sep-21 22:29N 33°46' W 118°12'0 0.0
2017-Sep-21 21:48N 33°46' W 118°12'0 0.0
2017-Sep-21 21:27N 33°46' W 118°12'0 0.0
2017-Sep-21 21:00N 33°46' W 118°12'0 0.0
2017-Sep-21 20:30N 33°46' W 118°12'0 0.0
2017-Sep-21 20:00N 33°46' W 118°12'0 0.0
2017-Sep-21 19:30N 33°46' W 118°12'0 0.0
2017-Sep-21 19:00N 33°46' W 118°12'0 0.0
2017-Sep-21 18:30N 33°46' W 118°12'0 0.0
2017-Sep-21 17:59N 33°46' W 118°12'0 0.0
2017-Sep-21 17:30N 33°46' W 118°12'0 0.0
2017-Sep-21 17:00N 33°46' W 118°12'0 0.0
2017-Sep-21 16:29N 33°46' W 118°12'0 0.0
2017-Sep-21 15:59N 33°46' W 118°12'0 0.0
2017-Sep-21 15:30N 33°46' W 118°12'0 0.0
2017-Sep-21 15:00N 33°46' W 118°12'0 0.0
2017-Sep-21 14:30N 33°46' W 118°12'0 0.0
2017-Sep-21 14:00N 33°46' W 118°12'0 0.0
2017-Sep-21 13:30N 33°46' W 118°12'0 0.0
2017-Sep-21 13:00N 33°46' W 118°12'0 0.0
2017-Sep-21 12:30N 33°46' W 118°12'0 0.0
2017-Sep-21 12:00N 33°46' W 118°12'0 0.0
2017-Sep-21 11:30N 33°46' W 118°12'0 0.0
2017-Sep-21 11:00N 33°46' W 118°12'0 0.0
2017-Sep-21 10:30N 33°46' W 118°12'0 0.0
2017-Sep-21 10:00N 33°46' W 118°12'0 0.0
2017-Sep-21 09:29N 33°46' W 118°12'0 0.0
2017-Sep-21 04:34N 33°46' W 118°12'0 0.0
2017-Sep-21 04:31N 33°46' W 118°12'0 0.0
2017-Sep-21 04:01N 33°46' W 118°12'0 0.0
2017-Sep-21 03:30N 33°46' W 118°12'0 0.0
2017-Sep-21 03:01N 33°46' W 118°12'0 0.0
2017-Sep-21 02:30N 33°46' W 118°12'0 0.0
2017-Sep-21 02:00N 33°46' W 118°12'0 0.0
2017-Sep-21 01:31N 33°46' W 118°12'0 0.0
2017-Sep-21 01:01N 33°46' W 118°12'0 0.0
2017-Sep-21 00:30N 33°46' W 118°12'0 0.0
2017-Sep-21 00:01N 33°46' W 118°12'0 0.0
2017-Sep-20 23:30N 33°46' W 118°12'0 0.0
2017-Sep-20 23:00N 33°46' W 118°12'0 0.0
2017-Sep-20 22:29N 33°46' W 118°12'0 0.0
2017-Sep-20 22:00N 33°46' W 118°12'0 0.0
2017-Sep-20 21:30N 33°46' W 118°12'0 0.0
2017-Sep-20 21:00N 33°46' W 118°12'0 0.0
2017-Sep-20 20:31N 33°46' W 118°12'0 0.0
2017-Sep-20 20:01N 33°46' W 118°12'0 0.0
2017-Sep-20 19:31N 33°46' W 118°12'0 0.0
2017-Sep-20 19:00N 33°46' W 118°12'0 0.0
2017-Sep-20 18:30N 33°46' W 118°12'0 0.0
2017-Sep-20 18:00N 33°46' W 118°12'0 0.0
2017-Sep-20 16:58N 33°46' W 118°12'0 0.0
2017-Sep-20 16:30N 33°46' W 118°12'0 0.0
2017-Sep-20 15:54N 33°46' W 118°12'0 0.0
2017-Sep-20 15:29N 33°46' W 118°12'0 0.0
2017-Sep-20 14:55N 33°46' W 118°12'0 0.0
2017-Sep-20 13:59N 33°46' W 118°12'0 0.0
2017-Sep-20 13:30N 33°46' W 118°12'0 0.0
2017-Sep-20 13:00N 33°46' W 118°12'0 0.0
2017-Sep-20 12:31N 33°46' W 118°12'0 0.0
2017-Sep-20 12:00N 33°46' W 118°12'0 0.0
2017-Sep-20 11:30N 33°46' W 118°12'0 0.0
2017-Sep-20 11:00N 33°46' W 118°12'0 0.0
2017-Sep-20 10:30N 33°46' W 118°12'0 0.0
2017-Sep-20 10:00N 33°46' W 118°12'0 0.0
2017-Sep-20 09:30N 33°46' W 118°12'0 0.0
2017-Sep-20 09:01N 33°46' W 118°12'0 0.0
2017-Sep-20 08:30N 33°46' W 118°12'0 0.0
2017-Sep-20 07:59N 33°46' W 118°12'0 0.0
2017-Sep-20 02:27N 33°46' W 118°12'0 0.0
2017-Sep-20 00:44N 33°46' W 118°12'0 0.0
2017-Sep-20 00:30N 33°46' W 118°12'0 0.0
2017-Sep-20 00:00N 33°46' W 118°12'0 0.0
2017-Sep-19 23:26N 33°46' W 118°12'0 0.0
2017-Sep-19 23:00N 33°46' W 118°12'0 0.0
2017-Sep-19 22:30N 33°46' W 118°12'0 0.0
2017-Sep-19 22:00N 33°46' W 118°12'0 0.0
2017-Sep-19 21:30N 33°46' W 118°12'0 0.0
2017-Sep-19 21:00N 33°46' W 118°12'0 0.0
2017-Sep-19 20:30N 33°46' W 118°12'0 0.0
2017-Sep-19 19:59N 33°46' W 118°12'0 0.0
2017-Sep-19 19:30N 33°46' W 118°12'0 0.0
2017-Sep-19 19:00N 33°46' W 118°12'0 0.0
2017-Sep-19 18:26N 33°46' W 118°12'0 0.0
2017-Sep-19 18:00N 33°46' W 118°12'0 0.0
2017-Sep-19 17:29N 33°46' W 118°12'0 0.0
2017-Sep-19 17:00N 33°46' W 118°12'0 0.0
2017-Sep-19 16:30N 33°46' W 118°12'0 0.0
2017-Sep-19 16:00N 33°46' W 118°12'0 0.0
2017-Sep-19 15:30N 33°46' W 118°12'0 0.0
2017-Sep-19 15:00N 33°46' W 118°12'0 0.0
2017-Sep-19 14:04N 33°46' W 118°12'0 0.0
2017-Sep-19 13:59N 33°46' W 118°12'0 0.0
2017-Sep-19 13:30N 33°46' W 118°12'0 0.0
2017-Sep-19 02:30N 33°46' W 118°12'2 3.3
2017-Sep-19 02:00N 33°44' W 118°11'5 9.1
2017-Sep-19 01:30N 33°40' W 118°14'17 4.5
2017-Sep-18 21:42N 33°25' W 118°24'3 8.6
2017-Sep-18 21:22N 33°23' W 118°21'4 8.8
2017-Sep-18 20:57N 33°21' W 118°19'1 0.9
2017-Sep-18 20:18N 33°20' W 118°18'4 3.4
2017-Sep-18 19:05N 33°23' W 118°22'0 0.6
2017-Sep-18 19:00N 33°23' W 118°22'5 3.5
2017-Sep-18 17:27N 33°28' W 118°18'4 8.9
2017-Sep-18 16:58N 33°31' W 118°15'6 9.0
2017-Sep-18 16:17N 33°36' W 118°11'2 9.0
2017-Sep-18 16:01N 33°39' W 118°10'5 9.2
2017-Sep-18 15:30N 33°43' W 118°08'0 0.9
2017-Sep-18 15:00N 33°44' W 118°08'3 7.2
2017-Sep-18 14:31N 33°46' W 118°12'0 0.0
2017-Sep-18 14:01N 33°46' W 118°12'0 0.0
2017-Sep-18 13:31N 33°46' W 118°12'0 0.0
2017-Sep-18 13:00N 33°46' W 118°12'0 0.0
2017-Sep-18 12:30N 33°46' W 118°12'0 0.0
2017-Sep-18 12:00N 33°46' W 118°12'0 0.0
2017-Sep-18 11:30N 33°46' W 118°12'0 0.0
2017-Sep-18 11:00N 33°46' W 118°12'0 0.0
2017-Sep-18 10:30N 33°46' W 118°12'0 0.0
2017-Sep-18 10:00N 33°46' W 118°12'0 0.0
2017-Sep-18 08:25N 33°46' W 118°12'0 0.0
2017-Sep-18 07:59N 33°46' W 118°12'0 0.0
2017-Sep-18 07:30N 33°46' W 118°12'0 0.0
2017-Sep-18 06:59N 33°46' W 118°12'0 0.0
2017-Sep-18 06:21N 33°46' W 118°12'0 0.0
2017-Sep-18 05:53N 33°46' W 118°12'0 0.0
2017-Sep-18 04:58N 33°46' W 118°12'0 0.0
2017-Sep-18 04:28N 33°46' W 118°12'0 0.0
2017-Sep-18 04:00N 33°46' W 118°12'0 0.0
2017-Sep-18 03:30N 33°46' W 118°12'0 0.0
2017-Sep-18 03:00N 33°46' W 118°12'0 0.0
2017-Sep-18 02:30N 33°46' W 118°12'0 0.0
2017-Sep-18 02:00N 33°46' W 118°12'0 0.0
2017-Sep-18 01:30N 33°46' W 118°12'0 0.0
2017-Sep-18 01:00N 33°46' W 118°12'0 0.0
2017-Sep-18 00:30N 33°46' W 118°12'0 0.0
2017-Sep-18 00:00N 33°46' W 118°12'0 0.0
2017-Sep-17 23:30N 33°46' W 118°12'0 0.0
2017-Sep-17 23:00N 33°46' W 118°12'0 0.0
2017-Sep-17 22:30N 33°46' W 118°12'0 0.0
2017-Sep-17 22:00N 33°46' W 118°12'0 0.0
2017-Sep-17 21:30N 33°46' W 118°12'0 0.0
2017-Sep-17 21:00N 33°46' W 118°12'0 0.0
2017-Sep-17 20:30N 33°46' W 118°12'0 0.0
2017-Sep-17 20:00N 33°46' W 118°12'0 0.0
2017-Sep-17 19:30N 33°46' W 118°12'0 0.0
2017-Sep-17 19:00N 33°46' W 118°12'0 0.0
2017-Sep-17 18:29N 33°46' W 118°12'0 0.0
2017-Sep-17 18:00N 33°46' W 118°12'0 0.0
2017-Sep-17 17:30N 33°46' W 118°12'0 0.0
2017-Sep-17 16:59N 33°46' W 118°12'0 0.0
2017-Sep-17 16:30N 33°46' W 118°12'0 0.0
2017-Sep-17 16:00N 33°46' W 118°12'0 0.0
2017-Sep-17 15:30N 33°46' W 118°12'0 0.0
2017-Sep-17 15:00N 33°46' W 118°12'0 0.0
2017-Sep-17 14:30N 33°46' W 118°12'0 0.0
2017-Sep-17 14:00N 33°46' W 118°12'0 0.0
2017-Sep-17 13:30N 33°46' W 118°12'0 0.0
2017-Sep-17 13:00N 33°46' W 118°12'0 0.0
2017-Sep-17 12:30N 33°46' W 118°12'0 0.0
2017-Sep-17 12:00N 33°46' W 118°12'0 0.0
2017-Sep-17 11:30N 33°46' W 118°12'0 0.0
2017-Sep-17 11:00N 33°46' W 118°12'0 0.0
2017-Sep-17 10:30N 33°46' W 118°12'0 0.0
2017-Sep-17 10:00N 33°46' W 118°12'0 0.0
2017-Sep-17 09:30N 33°46' W 118°12'0 0.0
2017-Sep-17 09:00N 33°46' W 118°12'0 0.0
2017-Sep-17 08:30N 33°46' W 118°12'0 0.0
2017-Sep-17 08:00N 33°46' W 118°12'0 0.0
2017-Sep-17 07:30N 33°46' W 118°12'0 0.0
2017-Sep-17 07:00N 33°46' W 118°12'0 0.0
2017-Sep-17 06:30N 33°46' W 118°12'0 0.0
2017-Sep-17 06:00N 33°46' W 118°12'0 0.0
2017-Sep-17 05:30N 33°46' W 118°12'0 0.0
2017-Sep-17 05:00N 33°46' W 118°12'0 0.0
2017-Sep-17 04:30N 33°46' W 118°12'0 0.0
2017-Sep-17 04:00N 33°46' W 118°12'0 0.0
2017-Sep-17 03:30N 33°46' W 118°12'0 0.0
2017-Sep-17 03:00N 33°46' W 118°12'0 0.0
2017-Sep-17 02:30N 33°46' W 118°12'0 0.0
2017-Sep-17 02:00N 33°46' W 118°12'0 0.0
2017-Sep-17 01:30N 33°46' W 118°12'0 0.0
2017-Sep-17 01:00N 33°46' W 118°12'0 0.0
2017-Sep-17 00:30N 33°46' W 118°12'0 0.0
2017-Sep-17 00:00N 33°46' W 118°12'0 0.0
2017-Sep-16 23:30N 33°46' W 118°12'0 0.0
2017-Sep-16 23:00N 33°46' W 118°12'0 0.0
2017-Sep-16 22:30N 33°46' W 118°12'0 0.0
2017-Sep-16 22:00N 33°46' W 118°12'0 0.0
2017-Sep-16 21:30N 33°46' W 118°12'0 0.0
2017-Sep-16 21:00N 33°46' W 118°12'0 0.0
2017-Sep-16 20:30N 33°46' W 118°12'0 0.0
2017-Sep-16 20:00N 33°46' W 118°12'0 0.0
2017-Sep-16 19:30N 33°46' W 118°12'0 0.0
2017-Sep-16 19:00N 33°46' W 118°12'0 0.0
2017-Sep-16 18:28N 33°46' W 118°12'0 0.0
2017-Sep-16 17:59N 33°46' W 118°12'0 0.0
2017-Sep-16 17:30N 33°46' W 118°12'0 0.0
2017-Sep-16 17:00N 33°46' W 118°12'0 0.0
2017-Sep-16 16:30N 33°46' W 118°12'0 0.0
2017-Sep-16 16:00N 33°46' W 118°12'0 0.0
2017-Sep-16 15:30N 33°46' W 118°12'0 0.0
2017-Sep-16 15:00N 33°46' W 118°12'0 0.0
2017-Sep-16 14:30N 33°46' W 118°12'0 0.0
2017-Sep-16 13:57N 33°46' W 118°12'0 0.0
2017-Sep-16 13:19N 33°46' W 118°12'0 0.0
2017-Sep-16 13:00N 33°46' W 118°12'0 0.0
2017-Sep-16 12:29N 33°46' W 118°12'0 0.0
2017-Sep-16 11:31N 33°46' W 118°12'0 0.0
2017-Sep-16 11:28N 33°46' W 118°12'0 0.0
2017-Sep-16 10:59N 33°46' W 118°12'0 0.0
2017-Sep-16 09:52N 33°46' W 118°12'0 0.0
2017-Sep-16 09:15N 33°46' W 118°12'0 0.0
2017-Sep-16 09:00N 33°46' W 118°12'0 0.0
2017-Sep-16 08:29N 33°46' W 118°12'0 0.0
2017-Sep-16 07:58N 33°46' W 118°12'0 0.0
2017-Sep-16 07:25N 33°46' W 118°12'0 0.0
2017-Sep-16 06:59N 33°46' W 118°12'0 0.0
2017-Sep-16 06:28N 33°46' W 118°12'0 0.0
2017-Sep-16 05:59N 33°46' W 118°12'0 0.0
2017-Sep-16 05:30N 33°46' W 118°12'0 0.0
2017-Sep-16 04:58N 33°46' W 118°12'0 0.0
2017-Sep-16 04:30N 33°46' W 118°12'0 0.0
2017-Sep-16 04:00N 33°46' W 118°12'0 0.0
2017-Sep-16 03:29N 33°46' W 118°12'0 0.0
2017-Sep-16 03:00N 33°46' W 118°12'0 0.0
2017-Sep-16 02:29N 33°46' W 118°12'0 0.0
2017-Sep-16 02:00N 33°46' W 118°12'0 0.0
2017-Sep-16 01:29N 33°46' W 118°12'0 0.0
2017-Sep-16 01:00N 33°46' W 118°12'0 0.0
2017-Sep-16 00:30N 33°46' W 118°12'0 0.0
2017-Sep-16 00:00N 33°46' W 118°12'0 0.0
2017-Sep-15 23:30N 33°46' W 118°12'0 0.0
2017-Sep-15 23:00N 33°46' W 118°12'0 0.0
2017-Sep-15 22:30N 33°46' W 118°12'0 0.0
2017-Sep-15 22:00N 33°46' W 118°12'0 0.0
2017-Sep-15 21:30N 33°46' W 118°12'0 0.0
2017-Sep-15 21:00N 33°46' W 118°12'0 0.0
2017-Sep-15 20:30N 33°46' W 118°12'0 0.0
2017-Sep-15 20:00N 33°46' W 118°12'0 0.0
2017-Sep-15 19:30N 33°46' W 118°12'  

Dump ship's entire track history